Time;durP1;ratioP1;P1;durP2;ratioP2;P2;SDS_P1;SDS_P2;PMS_P1;PMS_P2;Temp;Humidity;BMP_temperature;BMP_pressure;BME280_temperature;BME280_humidity;BME280_pressure;Samples;Min_cycle;Max_cycle;Signal;HPM_P1;HPM_P2
2021/08/24 00:01:15;;;;;;;;;10.67;8.00;;;;;;;;5041799;28;45543;-83
2021/08/24 00:03:40;;;;;;;;;10.00;8.25;;;;;;;;5037920;28;45682;-83
2021/08/24 00:06:05;;;;;;;;;10.00;7.00;;;;;;;;5042177;28;45607;-82
2021/08/24 00:08:31;;;;;;;;;11.75;8.00;;;;;;;;5042613;28;46194;-82
2021/08/24 00:10:57;;;;;;;;;11.50;9.00;;;;;;;;5039487;28;46355;-81
2021/08/24 00:13:23;;;;;;;;;12.00;10.25;;;;;;;;5044932;28;45600;-82
2021/08/24 00:15:48;;;;;;;;;14.25;9.50;;;;;;;;5036067;28;45670;-80
2021/08/24 00:18:14;;;;;;;;;12.75;11.25;;;;;;;;5040861;28;45604;-79
2021/08/24 00:20:40;;;;;;;;;13.25;9.00;;;;;;;;5041053;28;45520;-80
2021/08/24 00:23:07;;;;;;;;;9.00;9.00;;;;;;;;5037591;28;48969;-80
2021/08/24 00:25:33;;;;;;;;;10.25;8.25;;;;;;;;5040811;28;47305;-80
2021/08/24 00:27:58;;;;;;;;;17.25;12.25;;;;;;;;5043268;28;46278;-80
2021/08/24 00:30:23;;;;;;;;;13.00;8.75;;;;;;;;5039270;28;46504;-80
2021/08/24 00:32:49;;;;;;;;;9.67;9.67;;;;;;;;5044827;28;45546;-80
2021/08/24 00:35:14;;;;;;;;;12.67;10.67;;;;;;;;5040561;28;45701;-79
2021/08/24 00:37:39;;;;;;;;;11.33;10.33;;;;;;;;5045721;28;45480;-80
2021/08/24 00:40:07;;;;;;;;;11.33;11.33;;;;;;;;5041764;28;46110;-80
2021/08/24 00:42:32;;;;;;;;;14.00;11.50;;;;;;;;5040264;28;45449;-78
2021/08/24 00:44:58;;;;;;;;;13.67;11.67;;;;;;;;5044177;28;45493;-80
2021/08/24 00:47:26;;;;;;;;;13.00;12.00;;;;;;;;5036798;28;53723;-80
2021/08/24 00:49:52;;;;;;;;;13.25;12.00;;;;;;;;5037320;28;46070;-79
2021/08/24 00:52:19;;;;;;;;;12.75;11.75;;;;;;;;5036917;28;45912;-79
2021/08/24 00:54:45;;;;;;;;;16.00;13.75;;;;;;;;5040146;28;45621;-79
2021/08/24 00:57:12;;;;;;;;;16.00;14.25;;;;;;;;5041453;28;47090;-79
2021/08/24 00:59:38;;;;;;;;;13.75;13.50;;;;;;;;5041605;28;45802;-79
2021/08/24 01:02:04;;;;;;;;;18.25;14.25;;;;;;;;5021674;28;53401;-81
2021/08/24 01:04:30;;;;;;;;;16.25;11.75;;;;;;;;5043730;28;45680;-79
2021/08/24 01:07:04;;;;;;;;;13.50;12.50;;;;;;;;5034879;28;47145;-79
2021/08/24 01:09:48;;;;;;;;;15.50;13.00;;;;;;;;5035838;28;45838;-80
2021/08/24 01:12:31;;;;;;;;;17.25;13.00;;;;;;;;5044920;28;48846;-79
2021/08/24 01:15:03;;;;;;;;;18.50;14.00;;;;;;;;5046263;28;45428;-83
2021/08/24 01:17:32;;;;;;;;;19.00;13.25;;;;;;;;5039962;28;45995;-81
2021/08/24 01:19:57;;;;;;;;;13.50;13.00;;;;;;;;5016487;28;45707;-81
2021/08/24 01:22:46;;;;;;;;;14.00;12.67;;;;;;;;5042506;28;45637;-82
2021/08/24 01:25:14;;;;;;;;;17.25;14.50;;;;;;;;5040972;28;45851;-82
2021/08/24 01:27:52;;;;;;;;;14.50;13.00;;;;;;;;5022712;28;47593;-82
2021/08/24 01:30:26;;;;;;;;;12.00;9.75;;;;;;;;5043157;28;46408;-82
2021/08/24 01:32:51;;;;;;;;;12.50;10.75;;;;;;;;5046377;28;45844;-82
2021/08/24 01:35:21;;;;;;;;;17.00;13.25;;;;;;;;5031726;28;45671;-82
2021/08/24 01:38:04;;;;;;;;;14.25;10.25;;;;;;;;5044531;28;47098;-82
2021/08/24 01:40:41;;;;;;;;;15.00;12.00;;;;;;;;5029822;28;45648;-82
2021/08/24 01:45:59;;;;;;;;;15.50;14.00;;;;;;;;5078612;27;45812;-86
2021/08/24 01:48:55;;;;;;;;;15.00;13.25;;;;;;;;5079241;28;47849;-86
2021/08/24 01:51:26;;;;;;;;;19.25;13.75;;;;;;;;5074586;27;45923;-85
2021/08/24 01:53:59;;;;;;;;;17.00;14.00;;;;;;;;5083830;28;45337;-85
2021/08/24 01:56:31;;;;;;;;;17.25;14.25;;;;;;;;5080290;27;44801;-85
2021/08/24 01:59:17;;;;;;;;;14.25;12.00;;;;;;;;5082813;27;45390;-86
2021/08/24 02:02:14;;;;;;;;;18.00;14.75;;;;;;;;5066799;28;44846;-86
2021/08/24 02:05:10;;;;;;;;;19.00;12.00;;;;;;;;5085842;28;45348;-86
2021/08/24 02:07:35;;;;;;;;;19.50;14.00;;;;;;;;5035242;28;44880;-86
2021/08/24 02:10:06;;;;;;;;;15.50;14.50;;;;;;;;5010846;28;47294;-86
2021/08/24 02:12:54;;;;;;;;;17.75;13.00;;;;;;;;5034148;28;44857;-86
2021/08/24 02:15:26;;;;;;;;;14.25;13.25;;;;;;;;5035522;28;47362;-85
2021/08/24 02:17:52;;;;;;;;;15.00;12.00;;;;;;;;5035460;28;44905;-85
2021/08/24 02:20:54;;;;;;;;;9.00;9.00;;;;;;;;5033835;28;47329;-85
2021/08/24 02:23:36;;;;;;;;;20.00;14.00;;;;;;;;5033344;28;44857;-86
2021/08/24 02:26:16;;;;;;;;;17.50;17.00;;;;;;;;5035710;28;45355;-85
2021/08/24 02:29:09;;;;;;;;;20.25;14.25;;;;;;;;5034258;28;44873;-86
2021/08/24 02:31:41;;;;;;;;;18.25;14.25;;;;;;;;5050715;22;46293;-80
2021/08/24 02:34:18;;;;;;;;;16.75;13.25;;;;;;;;5031779;28;45605;-80
2021/08/24 02:36:50;;;;;;;;;17.50;16.25;;;;;;;;5037490;28;45552;-80
2021/08/24 02:39:18;;;;;;;;;18.50;16.00;;;;;;;;5037083;28;45549;-79
2021/08/24 02:41:58;;;;;;;;;18.25;17.50;;;;;;;;5023644;28;47331;-79
2021/08/24 02:44:32;;;;;;;;;23.25;19.75;;;;;;;;5028940;28;45601;-80
2021/08/24 02:46:58;;;;;;;;;19.00;16.50;;;;;;;;5031725;28;46934;-79
2021/08/24 02:49:25;;;;;;;;;23.00;18.75;;;;;;;;5033027;28;45656;-79
2021/08/24 02:51:51;;;;;;;;;23.75;19.75;;;;;;;;5035403;28;45698;-80
2021/08/24 02:54:23;;;;;;;;;18.75;16.00;;;;;;;;5035443;28;45854;-80
2021/08/24 02:56:48;;;;;;;;;22.75;16.50;;;;;;;;5031783;28;45617;-79
2021/08/24 02:59:13;;;;;;;;;20.50;16.50;;;;;;;;5017095;28;45670;-79
2021/08/24 03:01:39;;;;;;;;;22.67;20.00;;;;;;;;5032174;28;46387;-79
2021/08/24 03:04:05;;;;;;;;;23.67;20.67;;;;;;;;5032371;28;45447;-80
2021/08/24 03:06:31;;;;;;;;;23.50;19.75;;;;;;;;5034620;28;45642;-80
2021/08/24 03:08:57;;;;;;;;;26.25;21.25;;;;;;;;5037092;28;45295;-80
2021/08/24 03:11:25;;;;;;;;;22.00;19.50;;;;;;;;5028179;28;45725;-80
2021/08/24 03:14:00;;;;;;;;;24.50;20.75;;;;;;;;5028231;28;51214;-79
2021/08/24 03:16:33;;;;;;;;;26.00;22.00;;;;;;;;5035265;28;45573;-82
2021/08/24 03:19:01;;;;;;;;;28.75;21.50;;;;;;;;5028938;28;45579;-82
2021/08/24 03:21:30;;;;;;;;;34.75;24.75;;;;;;;;5032657;28;46431;-84
2021/08/24 03:23:56;;;;;;;;;22.25;21.75;;;;;;;;5032370;28;45576;-83
2021/08/24 03:26:24;;;;;;;;;25.67;24.33;;;;;;;;5020712;28;45632;-81
2021/08/24 03:28:49;;;;;;;;;31.25;25.00;;;;;;;;5020189;28;45824;-82
2021/08/24 03:31:19;;;;;;;;;26.50;25.75;;;;;;;;5035912;28;46319;-82
2021/08/24 03:33:44;;;;;;;;;32.25;26.00;;;;;;;;5036147;28;45802;-82
2021/08/24 03:36:10;;;;;;;;;28.75;23.50;;;;;;;;5050265;28;46882;-82
2021/08/24 03:38:38;;;;;;;;;27.00;25.00;;;;;;;;5044943;28;45484;-82
2021/08/24 03:41:07;;;;;;;;;32.75;27.50;;;;;;;;5028978;28;46077;-83
2021/08/24 03:43:33;;;;;;;;;31.00;27.75;;;;;;;;5039785;28;45960;-82
2021/08/24 03:45:58;;;;;;;;;34.25;23.00;;;;;;;;5031160;28;46079;-81
2021/08/24 03:48:23;;;;;;;;;36.00;29.00;;;;;;;;5034485;28;46259;-80
2021/08/24 03:50:49;;;;;;;;;36.50;28.25;;;;;;;;5028938;28;45912;-84
2021/08/24 03:53:14;;;;;;;;;27.00;25.67;;;;;;;;5027128;28;45593;-79
2021/08/24 03:55:39;;;;;;;;;29.25;26.25;;;;;;;;5033035;28;45847;-82
2021/08/24 03:58:04;;;;;;;;;36.67;31.67;;;;;;;;5039277;28;45584;-83
2021/08/24 04:00:30;;;;;;;;;31.00;27.25;;;;;;;;5026162;28;45567;-83
2021/08/24 04:02:55;;;;;;;;;35.33;28.33;;;;;;;;5050423;28;45587;-83
2021/08/24 04:05:20;;;;;;;;;34.00;30.67;;;;;;;;5035813;28;45596;-83
2021/08/24 04:07:46;;;;;;;;;31.50;29.50;;;;;;;;5038048;28;45522;-83
2021/08/24 04:10:12;;;;;;;;;29.00;25.00;;;;;;;;5039561;28;46316;-81
2021/08/24 04:12:38;;;;;;;;;36.25;30.75;;;;;;;;5039634;28;45458;-81
2021/08/24 04:15:06;;;;;;;;;37.25;31.75;;;;;;;;5019302;28;45593;-79
2021/08/24 04:17:32;;;;;;;;;42.00;34.00;;;;;;;;5053499;28;45569;-79
2021/08/24 04:19:57;;;;;;;;;34.25;30.75;;;;;;;;5042555;28;45551;-80
2021/08/24 04:22:25;;;;;;;;;33.75;30.00;;;;;;;;5046285;28;45588;-80
2021/08/24 04:24:50;;;;;;;;;40.75;34.25;;;;;;;;5035712;28;45459;-81
2021/08/24 04:27:18;;;;;;;;;46.67;30.33;;;;;;;;5045133;28;45365;-79
2021/08/24 04:29:44;;;;;;;;;34.25;28.25;;;;;;;;5035486;28;46444;-79
2021/08/24 04:32:22;;;;;;;;;31.50;27.50;;;;;;;;5034401;28;45249;-80
2021/08/24 04:34:47;;;;;;;;;34.25;28.50;;;;;;;;5037086;28;45451;-79
2021/08/24 04:37:12;;;;;;;;;36.33;32.67;;;;;;;;5028567;28;45530;-79
2021/08/24 04:39:37;;;;;;;;;38.50;30.50;;;;;;;;5027489;28;45541;-81
2021/08/24 04:42:03;;;;;;;;;39.67;30.00;;;;;;;;5017216;28;45694;-79
2021/08/24 04:44:28;;;;;;;;;35.00;29.50;;;;;;;;5027187;28;46267;-79
2021/08/24 04:46:53;;;;;;;;;45.00;32.00;;;;;;;;5028943;28;47688;-79
2021/08/24 04:49:19;;;;;;;;;38.00;31.33;;;;;;;;5031373;28;46729;-78
2021/08/24 04:51:44;;;;;;;;;33.50;29.00;;;;;;;;5039169;28;45709;-79
2021/08/24 04:54:10;;;;;;;;;33.75;28.25;;;;;;;;5038446;28;46608;-79
2021/08/24 04:56:35;;;;;;;;;38.25;32.00;;;;;;;;5028361;28;46315;-79
2021/08/24 04:59:00;;;;;;;;;38.75;31.75;;;;;;;;5037859;28;45973;-78
2021/08/24 05:01:26;;;;;;;;;32.33;27.67;;;;;;;;5052131;28;45397;-79
2021/08/24 05:03:51;;;;;;;;;39.25;32.00;;;;;;;;5048557;28;45463;-78
2021/08/24 05:06:16;;;;;;;;;32.67;30.00;;;;;;;;5033650;28;45537;-78
2021/08/24 05:08:41;;;;;;;;;36.67;32.00;;;;;;;;5027036;28;46314;-79
2021/08/24 05:11:06;;;;;;;;;40.33;32.00;;;;;;;;5026021;28;45641;-79
2021/08/24 05:13:32;;;;;;;;;38.33;32.33;;;;;;;;5033138;28;45266;-79
2021/08/24 05:15:57;;;;;;;;;33.33;32.00;;;;;;;;5027214;28;45692;-81
2021/08/24 05:18:22;;;;;;;;;35.67;33.00;;;;;;;;5030649;28;46346;-82
2021/08/24 05:20:47;;;;;;;;;33.75;27.50;;;;;;;;5015510;28;45880;-82
2021/08/24 05:23:13;;;;;;;;;35.00;32.00;;;;;;;;5028952;28;45941;-82
2021/08/24 05:25:38;;;;;;;;;41.00;31.75;;;;;;;;5035687;28;45441;-81
2021/08/24 05:28:04;;;;;;;;;42.50;31.25;;;;;;;;5032833;28;45568;-82
2021/08/24 05:30:29;;;;;;;;;38.25;31.75;;;;;;;;5024262;28;45488;-81
2021/08/24 05:32:54;;;;;;;;;34.50;31.25;;;;;;;;5027336;28;45607;-83
2021/08/24 05:35:20;;;;;;;;;40.25;32.00;;;;;;;;5028679;28;46070;-82
2021/08/24 05:37:46;;;;;;;;;39.00;32.00;;;;;;;;5029500;28;45700;-82
2021/08/24 05:40:11;;;;;;;;;36.00;27.75;;;;;;;;5024719;28;45521;-81
2021/08/24 05:42:37;;;;;;;;;38.50;32.00;;;;;;;;5027653;28;45700;-83
2021/08/24 05:45:03;;;;;;;;;33.00;29.75;;;;;;;;5029885;28;45832;-83
2021/08/24 05:47:29;;;;;;;;;39.50;31.00;;;;;;;;5028121;28;46196;-82
2021/08/24 05:49:54;;;;;;;;;38.00;33.25;;;;;;;;5027220;28;45813;-81
2021/08/24 05:52:20;;;;;;;;;41.50;32.25;;;;;;;;5029091;28;46490;-82
2021/08/24 05:54:47;;;;;;;;;38.33;32.00;;;;;;;;5024299;28;45528;-83
2021/08/24 05:57:12;;;;;;;;;37.50;32.00;;;;;;;;5026093;28;45571;-81
2021/08/24 05:59:37;;;;;;;;;38.33;31.00;;;;;;;;5019284;28;45701;-83
2021/08/24 06:02:03;;;;;;;;;40.33;32.00;;;;;;;;5028290;28;45509;-81
2021/08/24 06:04:29;;;;;;;;;33.75;28.50;;;;;;;;5031868;28;46574;-81
2021/08/24 06:06:54;;;;;;;;;34.75;27.75;;;;;;;;5026957;28;46123;-82
2021/08/24 06:09:19;;;;;;;;;33.75;32.00;;;;;;;;5030204;28;45517;-82
2021/08/24 06:11:47;;;;;;;;;34.00;28.33;;;;;;;;5027757;28;46140;-83
2021/08/24 06:14:13;;;;;;;;;34.25;26.75;;;;;;;;5029809;28;45434;-81
2021/08/24 06:16:39;;;;;;;;;29.50;25.50;;;;;;;;5018182;28;47469;-81
2021/08/24 06:19:04;;;;;;;;;31.25;31.00;;;;;;;;5020906;28;45655;-82
2021/08/24 06:21:30;;;;;;;;;34.00;28.25;;;;;;;;5022657;28;45922;-82
2021/08/24 06:23:55;;;;;;;;;30.33;26.67;;;;;;;;5016558;28;47795;-82
2021/08/24 06:26:21;;;;;;;;;40.75;31.00;;;;;;;;5027417;28;46462;-82
2021/08/24 06:28:46;;;;;;;;;32.67;28.00;;;;;;;;5016108;28;46084;-83
2021/08/24 06:31:19;;;;;;;;;30.75;26.75;;;;;;;;5028587;28;47928;-82
2021/08/24 06:33:45;;;;;;;;;33.00;29.00;;;;;;;;5026885;28;46850;-82
2021/08/24 06:36:11;;;;;;;;;32.50;27.50;;;;;;;;5027268;28;46455;-82
2021/08/24 06:38:36;;;;;;;;;31.25;28.25;;;;;;;;5026236;28;45883;-82
2021/08/24 06:41:03;;;;;;;;;35.00;29.75;;;;;;;;5023768;28;45531;-82
2021/08/24 06:43:28;;;;;;;;;30.50;27.50;;;;;;;;5029745;28;45308;-82
2021/08/24 06:45:54;;;;;;;;;31.50;27.50;;;;;;;;5027458;28;46274;-82
2021/08/24 06:48:19;;;;;;;;;33.50;29.00;;;;;;;;5029017;28;45395;-82
2021/08/24 06:50:44;;;;;;;;;35.00;29.33;;;;;;;;5023780;28;45655;-83
2021/08/24 06:53:10;;;;;;;;;35.33;28.67;;;;;;;;5028071;28;45833;-82
2021/08/24 06:55:38;;;;;;;;;30.75;30.50;;;;;;;;5035160;28;45453;-82
2021/08/24 06:58:03;;;;;;;;;34.00;30.50;;;;;;;;5029469;28;45481;-82
2021/08/24 07:00:28;;;;;;;;;30.00;25.25;;;;;;;;5030887;28;45401;-81
2021/08/24 07:02:54;;;;;;;;;31.67;29.67;;;;;;;;5032142;28;45504;-82
2021/08/24 07:05:21;;;;;;;;;30.50;25.75;;;;;;;;5013448;28;48551;-82
2021/08/24 07:07:46;;;;;;;;;36.00;29.25;;;;;;;;5031167;28;45697;-82
2021/08/24 07:10:13;;;;;;;;;32.00;24.25;;;;;;;;5027484;28;50606;-83
2021/08/24 07:12:38;;;;;;;;;30.25;28.50;;;;;;;;5029176;28;46184;-83
2021/08/24 07:15:05;;;;;;;;;32.75;26.75;;;;;;;;5034815;28;45550;-82
2021/08/24 07:17:30;;;;;;;;;30.25;28.25;;;;;;;;5029827;28;45616;-82
2021/08/24 07:19:55;;;;;;;;;31.67;29.00;;;;;;;;5027372;28;45722;-83
2021/08/24 07:22:20;;;;;;;;;29.67;25.67;;;;;;;;5038239;28;45557;-83
2021/08/24 07:24:46;;;;;;;;;29.33;26.33;;;;;;;;5034065;28;46224;-83
2021/08/24 07:27:11;;;;;;;;;39.00;27.00;;;;;;;;5020558;28;45303;-83
2021/08/24 07:29:37;;;;;;;;;24.00;24.00;;;;;;;;5032083;28;45857;-86
2021/08/24 07:32:03;;;;;;;;;30.75;26.25;;;;;;;;5038725;28;46480;-82
2021/08/24 07:34:29;;;;;;;;;28.00;27.00;;;;;;;;5054125;27;46273;-85
2021/08/24 07:36:54;;;;;;;;;27.75;24.00;;;;;;;;5058415;27;48761;-84
2021/08/24 07:39:19;;;;;;;;;28.00;23.25;;;;;;;;5057746;27;45719;-86
2021/08/24 07:41:44;;;;;;;;;29.00;24.25;;;;;;;;5053403;27;45503;-86
2021/08/24 07:44:10;;;;;;;;;23.25;21.00;;;;;;;;5055784;27;46674;-87
2021/08/24 07:46:35;;;;;;;;;32.00;24.00;;;;;;;;5055498;28;46838;-85
2021/08/24 07:49:04;;;;;;;;;24.75;22.00;;;;;;;;5053187;28;45701;-85
2021/08/24 07:51:29;;;;;;;;;29.00;24.75;;;;;;;;5059209;27;45788;-87
2021/08/24 07:54:00;;;;;;;;;24.25;21.50;;;;;;;;5064691;28;48368;-91
2021/08/24 07:56:31;;;;;;;;;22.50;22.00;;;;;;;;5065404;27;45621;-87
2021/08/24 07:58:56;;;;;;;;;21.25;20.25;;;;;;;;5056968;27;45583;-83
2021/08/24 08:01:22;;;;;;;;;25.75;24.25;;;;;;;;5070094;27;45925;-87
2021/08/24 08:03:56;;;;;;;;;29.00;18.75;;;;;;;;5051784;28;47647;-87
2021/08/24 08:06:21;;;;;;;;;26.50;18.50;;;;;;;;5066562;28;45686;-86
2021/08/24 08:08:47;;;;;;;;;24.00;20.67;;;;;;;;5053019;27;45570;-87
2021/08/24 08:11:12;;;;;;;;;22.50;18.50;;;;;;;;5053442;28;45572;-85
2021/08/24 08:13:39;;;;;;;;;22.50;20.75;;;;;;;;5066872;27;45743;-87
2021/08/24 08:16:07;;;;;;;;;21.00;18.00;;;;;;;;5062979;27;45958;-83
2021/08/24 08:18:32;;;;;;;;;24.00;20.50;;;;;;;;5067978;27;45533;-85
2021/08/24 08:20:57;;;;;;;;;21.50;18.75;;;;;;;;5071304;28;45648;-83
2021/08/24 08:23:23;;;;;;;;;17.00;14.25;;;;;;;;5062885;28;47836;-84
2021/08/24 08:25:48;;;;;;;;;20.00;17.25;;;;;;;;5074356;27;45448;-86
2021/08/24 08:28:13;;;;;;;;;21.00;16.00;;;;;;;;5055939;27;45449;-84
2021/08/24 08:30:41;;;;;;;;;19.00;17.00;;;;;;;;5062231;28;49698;-84
2021/08/24 08:33:07;;;;;;;;;21.50;19.00;;;;;;;;5040891;28;46351;-84
2021/08/24 08:35:32;;;;;;;;;14.33;14.00;;;;;;;;5019537;28;45639;-84
2021/08/24 08:38:00;;;;;;;;;17.00;15.25;;;;;;;;5032735;28;45636;-87
2021/08/24 08:40:32;;;;;;;;;21.75;17.00;;;;;;;;5017996;28;45952;-85
2021/08/24 08:43:01;;;;;;;;;23.50;18.75;;;;;;;;5032462;28;46265;-84
2021/08/24 08:45:35;;;;;;;;;15.75;15.00;;;;;;;;5032870;28;45704;-83
2021/08/24 08:48:09;;;;;;;;;20.00;16.75;;;;;;;;5031576;28;45671;-85
2021/08/24 08:50:45;;;;;;;;;19.25;15.50;;;;;;;;5028015;28;45573;-87
2021/08/24 08:53:25;;;;;;;;;15.50;12.75;;;;;;;;5021077;28;46370;-86
2021/08/24 08:55:50;;;;;;;;;13.25;12.00;;;;;;;;5033453;28;45615;-87
2021/08/24 08:58:27;;;;;;;;;13.00;11.00;;;;;;;;5017106;28;46033;-86
2021/08/24 09:00:56;;;;;;;;;13.75;12.00;;;;;;;;5020878;28;45603;-86
2021/08/24 09:03:43;;;;;;;;;12.50;11.00;;;;;;;;5030387;28;48232;-86
2021/08/24 09:06:09;;;;;;;;;12.75;11.75;;;;;;;;5048763;28;45464;-87
2021/08/24 09:08:35;;;;;;;;;16.00;13.25;;;;;;;;5034920;28;45834;-87
2021/08/24 09:11:05;;;;;;;;;12.00;11.25;;;;;;;;5040837;28;45314;-88
2021/08/24 09:13:34;;;;;;;;;17.50;11.75;;;;;;;;5016153;28;47465;-86
2021/08/24 09:16:04;;;;;;;;;10.00;10.00;;;;;;;;5019220;28;45469;-86
2021/08/24 09:18:41;;;;;;;;;13.25;11.00;;;;;;;;5035717;28;46152;-86
2021/08/24 09:21:08;;;;;;;;;11.25;10.25;;;;;;;;5019729;28;45529;-87
2021/08/24 09:23:34;;;;;;;;;17.00;10.50;;;;;;;;5033718;28;46688;-86
2021/08/24 09:26:10;;;;;;;;;9.75;9.75;;;;;;;;5032266;28;45584;-86
2021/08/24 09:28:35;;;;;;;;;11.25;9.25;;;;;;;;5016837;28;45496;-86
2021/08/24 09:31:02;;;;;;;;;11.00;10.00;;;;;;;;5039777;28;46208;-87
2021/08/24 09:33:28;;;;;;;;;10.25;8.50;;;;;;;;5038116;28;46653;-87
2021/08/24 09:35:55;;;;;;;;;9.75;8.00;;;;;;;;5038287;28;45530;-86
2021/08/24 09:38:31;;;;;;;;;12.25;9.75;;;;;;;;5038163;28;45509;-88
2021/08/24 09:41:01;;;;;;;;;10.75;8.75;;;;;;;;5036834;28;45632;-85
2021/08/24 09:43:29;;;;;;;;;9.75;9.75;;;;;;;;5010989;28;46200;-84
2021/08/24 09:46:06;;;;;;;;;7.25;7.25;;;;;;;;5034312;28;45862;-87
2021/08/24 09:48:50;;;;;;;;;7.00;7.00;;;;;;;;5026221;28;47695;-86
2021/08/24 09:51:25;;;;;;;;;5.75;5.50;;;;;;;;5032154;28;45514;-86
2021/08/24 09:53:54;;;;;;;;;9.50;7.25;;;;;;;;5040469;28;45539;-86
2021/08/24 09:56:22;;;;;;;;;8.50;7.50;;;;;;;;5028577;28;45819;-87
2021/08/24 09:58:48;;;;;;;;;8.50;7.00;;;;;;;;5029283;28;45505;-88
2021/08/24 10:01:15;;;;;;;;;5.50;5.50;;;;;;;;5045958;28;53789;-87
2021/08/24 10:03:41;;;;;;;;;8.75;5.75;;;;;;;;5041284;28;45637;-87
2021/08/24 10:06:29;;;;;;;;;6.75;6.00;;;;;;;;5057943;28;45196;-86
2021/08/24 10:09:14;;;;;;;;;6.00;5.25;;;;;;;;5043011;28;45303;-85
2021/08/24 10:11:39;;;;;;;;;9.00;7.50;;;;;;;;5053174;28;45529;-85
2021/08/24 10:14:09;;;;;;;;;7.75;6.75;;;;;;;;5034904;28;46744;-88
2021/08/24 10:16:35;;;;;;;;;6.50;5.50;;;;;;;;5034345;28;45481;-87
2021/08/24 10:19:08;;;;;;;;;6.00;6.00;;;;;;;;5037683;28;45668;-86
2021/08/24 10:21:51;;;;;;;;;7.00;6.00;;;;;;;;5035327;28;45433;-86
2021/08/24 10:24:22;;;;;;;;;7.50;6.25;;;;;;;;5031707;28;48147;-87
2021/08/24 10:26:52;;;;;;;;;5.25;5.25;;;;;;;;5020009;28;45383;-86
2021/08/24 10:29:23;;;;;;;;;8.75;5.25;;;;;;;;5029843;28;45568;-85
2021/08/24 10:32:02;;;;;;;;;7.00;4.75;;;;;;;;5040391;28;45595;-86
2021/08/24 10:34:39;;;;;;;;;5.00;5.00;;;;;;;;5041082;28;47116;-87
2021/08/24 10:37:13;;;;;;;;;5.00;5.00;;;;;;;;5034242;28;49192;-83
2021/08/24 10:39:39;;;;;;;;;4.00;4.00;;;;;;;;5033833;28;45394;-84
2021/08/24 10:42:16;;;;;;;;;7.50;4.50;;;;;;;;5036262;28;46107;-86
2021/08/24 10:44:46;;;;;;;;;4.25;2.75;;;;;;;;5028515;28;48418;-85
2021/08/24 10:47:14;;;;;;;;;3.75;3.75;;;;;;;;5028418;28;45979;-82
2021/08/24 10:49:40;;;;;;;;;3.75;3.75;;;;;;;;5029581;28;45663;-83
2021/08/24 10:52:24;;;;;;;;;2.50;2.50;;;;;;;;5035363;28;45583;-81
2021/08/24 10:54:52;;;;;;;;;4.00;3.50;;;;;;;;5030198;28;46625;-81
2021/08/24 10:57:22;;;;;;;;;5.50;3.75;;;;;;;;5043369;28;45480;-81
2021/08/24 11:00:00;;;;;;;;;5.75;3.75;;;;;;;;5023115;28;45785;-81
2021/08/24 11:02:28;;;;;;;;;3.00;3.00;;;;;;;;5040082;28;45640;-82
2021/08/24 11:05:20;;;;;;;;;4.00;3.00;;;;;;;;5018591;28;48384;-81
2021/08/24 11:08:04;;;;;;;;;5.00;4.00;;;;;;;;5035727;28;45730;-81
2021/08/24 11:10:39;;;;;;;;;4.00;4.00;;;;;;;;5022323;28;45556;-82
2021/08/24 11:13:07;;;;;;;;;6.00;4.75;;;;;;;;5034046;28;45700;-80
2021/08/24 11:15:51;;;;;;;;;3.25;3.00;;;;;;;;5039705;28;45695;-81
2021/08/24 11:18:19;;;;;;;;;3.00;3.00;;;;;;;;5045142;28;45306;-81
2021/08/24 11:20:56;;;;;;;;;6.00;4.25;;;;;;;;5035754;28;45704;-80
2021/08/24 11:23:24;;;;;;;;;4.25;4.00;;;;;;;;5034361;28;45518;-81
2021/08/24 11:25:50;;;;;;;;;4.50;4.50;;;;;;;;5037203;28;45754;-80
2021/08/24 11:28:18;;;;;;;;;4.25;2.25;;;;;;;;5034773;28;45857;-80
2021/08/24 11:30:43;;;;;;;;;3.75;3.75;;;;;;;;5034179;28;45632;-80
2021/08/24 11:33:16;;;;;;;;;4.00;4.00;;;;;;;;5045234;28;45482;-80
2021/08/24 11:35:49;;;;;;;;;3.75;3.75;;;;;;;;5035272;28;45442;-80
2021/08/24 11:38:17;;;;;;;;;2.00;2.00;;;;;;;;5030150;28;45686;-80
2021/08/24 11:40:54;;;;;;;;;3.00;3.00;;;;;;;;5045748;28;45600;-80
2021/08/24 11:43:38;;;;;;;;;2.75;2.75;;;;;;;;5033829;28;45339;-80
2021/08/24 11:46:06;;;;;;;;;3.00;3.00;;;;;;;;5036432;28;45729;-80
2021/08/24 11:48:34;;;;;;;;;4.75;4.00;;;;;;;;5034040;28;50879;-79
2021/08/24 11:50:59;;;;;;;;;4.75;3.75;;;;;;;;5037253;28;45584;-80
2021/08/24 11:53:28;;;;;;;;;2.33;2.33;;;;;;;;5038529;28;45803;-79
2021/08/24 11:55:56;;;;;;;;;8.50;4.00;;;;;;;;5045015;28;50797;-80
2021/08/24 11:58:29;;;;;;;;;3.00;3.00;;;;;;;;5040303;28;47201;-80
2021/08/24 12:00:59;;;;;;;;;2.50;2.50;;;;;;;;5039737;28;45541;-81
2021/08/24 12:03:24;;;;;;;;;4.00;2.25;;;;;;;;5035510;28;45772;-81
2021/08/24 12:05:53;;;;;;;;;3.75;3.75;;;;;;;;5027566;28;55670;-81
2021/08/24 12:08:26;;;;;;;;;4.00;3.75;;;;;;;;5040970;28;45703;-80
2021/08/24 12:10:51;;;;;;;;;4.50;2.75;;;;;;;;5041806;28;45397;-80
2021/08/24 12:13:35;;;;;;;;;3.67;3.00;;;;;;;;5042590;28;45543;-81
2021/08/24 12:16:18;;;;;;;;;4.00;2.75;;;;;;;;5039347;28;50157;-81
2021/08/24 12:18:44;;;;;;;;;5.00;3.00;;;;;;;;5037103;28;46867;-81
2021/08/24 12:21:35;;;;;;;;;5.75;3.25;;;;;;;;5035127;28;45909;-81
2021/08/24 12:24:19;;;;;;;;;12.50;7.00;;;;;;;;4975962;28;45894;-82
2021/08/24 12:26:44;;;;;;;;;3.00;3.00;;;;;;;;4979140;28;45523;-81
2021/08/24 12:29:28;;;;;;;;;3.33;2.67;;;;;;;;4967341;28;46941;-81
2021/08/24 12:31:56;;;;;;;;;3.00;2.00;;;;;;;;4953612;28;45612;-81
2021/08/24 12:34:33;;;;;;;;;3.00;3.00;;;;;;;;4967821;28;48994;-81
2021/08/24 12:36:59;;;;;;;;;5.50;2.00;;;;;;;;4971473;28;48423;-80
2021/08/24 12:39:31;;;;;;;;;6.00;3.00;;;;;;;;4969055;28;45346;-80
2021/08/24 12:42:12;;;;;;;;;3.00;1.50;;;;;;;;4970370;28;45681;-81
2021/08/24 12:45:10;;;;;;;;;2.50;2.50;;;;;;;;4969787;28;45894;-82
2021/08/24 12:47:53;;;;;;;;;3.00;2.00;;;;;;;;4961016;28;46163;-80
2021/08/24 12:50:18;;;;;;;;;3.75;2.00;;;;;;;;4965512;28;45925;-81
2021/08/24 12:52:45;;;;;;;;;4.75;3.00;;;;;;;;4977668;28;45701;-81
2021/08/24 12:55:29;;;;;;;;;1.75;1.75;;;;;;;;4966336;28;45593;-80
2021/08/24 12:58:14;;;;;;;;;2.25;2.25;;;;;;;;4964269;28;47436;-80
2021/08/24 13:00:40;;;;;;;;;3.50;2.75;;;;;;;;4992823;28;45616;-81
2021/08/24 13:03:26;;;;;;;;;3.25;2.75;;;;;;;;5029301;28;45533;-81
2021/08/24 13:06:09;;;;;;;;;4.25;2.00;;;;;;;;5037554;28;45521;-80
2021/08/24 13:08:35;;;;;;;;;2.75;2.75;;;;;;;;5028648;28;45735;-78
2021/08/24 13:11:19;;;;;;;;;3.50;3.00;;;;;;;;5034433;28;46738;-81
2021/08/24 13:13:53;;;;;;;;;2.75;2.00;;;;;;;;5032507;28;45693;-81
2021/08/24 13:16:22;;;;;;;;;2.25;2.25;;;;;;;;5030742;28;45929;-79
2021/08/24 13:18:49;;;;;;;;;2.00;2.00;;;;;;;;5032149;28;46481;-80
2021/08/24 13:21:22;;;;;;;;;2.75;2.00;;;;;;;;5044161;28;45587;-79
2021/08/24 13:23:48;;;;;;;;;2.75;2.75;;;;;;;;5028187;28;45669;-81
2021/08/24 13:26:16;;;;;;;;;2.00;2.00;;;;;;;;5011804;28;45673;-80
2021/08/24 13:28:45;;;;;;;;;4.00;3.75;;;;;;;;5031170;28;45594;-80
2021/08/24 13:31:32;;;;;;;;;5.25;2.75;;;;;;;;5033714;28;45514;-80
2021/08/24 13:34:01;;;;;;;;;2.00;2.00;;;;;;;;5034714;28;51372;-80
2021/08/24 13:36:37;;;;;;;;;3.00;3.00;;;;;;;;5029087;28;45501;-80
2021/08/24 13:39:04;;;;;;;;;6.50;5.00;;;;;;;;5033475;28;46329;-80
2021/08/24 13:41:41;;;;;;;;;3.25;3.25;;;;;;;;5026797;28;46324;-80
2021/08/24 13:44:14;;;;;;;;;3.50;2.75;;;;;;;;5033168;28;45770;-80
2021/08/24 13:46:41;;;;;;;;;5.00;3.25;;;;;;;;5034161;28;45778;-80
2021/08/24 13:49:09;;;;;;;;;4.00;4.00;;;;;;;;5029544;28;45907;-80
2021/08/24 13:51:55;;;;;;;;;4.25;4.25;;;;;;;;5010247;28;45939;-80
2021/08/24 13:54:30;;;;;;;;;3.50;3.50;;;;;;;;5037596;28;45548;-80
2021/08/24 13:56:56;;;;;;;;;3.00;3.00;;;;;;;;5039301;28;45490;-81
2021/08/24 13:59:23;;;;;;;;;4.00;3.75;;;;;;;;5028658;28;56959;-81
2021/08/24 14:01:48;;;;;;;;;4.00;4.00;;;;;;;;5031573;28;47535;-81
2021/08/24 14:04:19;;;;;;;;;4.75;3.00;;;;;;;;5026834;28;45288;-82
2021/08/24 14:06:44;;;;;;;;;4.25;4.00;;;;;;;;5029948;28;45463;-80
2021/08/24 14:09:11;;;;;;;;;5.33;3.33;;;;;;;;5037005;28;48074;-81
2021/08/24 14:11:37;;;;;;;;;4.75;4.00;;;;;;;;5034113;28;49154;-79
2021/08/24 14:14:03;;;;;;;;;5.00;5.00;;;;;;;;5038728;28;46147;-81
2021/08/24 14:16:36;;;;;;;;;6.50;6.00;;;;;;;;5025891;28;45665;-81
2021/08/24 14:19:12;;;;;;;;;7.00;4.50;;;;;;;;5032111;28;47269;-81
2021/08/24 14:21:38;;;;;;;;;3.50;2.50;;;;;;;;5018350;28;45720;-81
2021/08/24 14:24:05;;;;;;;;;4.00;3.50;;;;;;;;5041909;28;45466;-81
2021/08/24 14:26:35;;;;;;;;;8.00;5.50;;;;;;;;5030679;28;46277;-81
2021/08/24 14:29:03;;;;;;;;;4.25;3.00;;;;;;;;5039268;28;46159;-82
2021/08/24 14:31:30;;;;;;;;;4.00;4.00;;;;;;;;5037345;28;45415;-81
2021/08/24 14:34:11;;;;;;;;;3.00;3.00;;;;;;;;5028835;28;45644;-81
2021/08/24 14:36:38;;;;;;;;;9.00;8.00;;;;;;;;5025861;28;45407;-81
2021/08/24 14:39:09;;;;;;;;;5.25;5.00;;;;;;;;5037661;28;46424;-80
2021/08/24 14:41:36;;;;;;;;;8.00;6.75;;;;;;;;5040356;28;46260;-83
2021/08/24 14:44:16;;;;;;;;;10.75;6.75;;;;;;;;5029226;28;46235;-79